Yellow Mule RAWS (NWS)

Elevation
9200ft
Aggregated by Synoptic Data
Date/Time Wind Direction Wind Speed knots Wind Gust knots RH % Accumulated Precip Inches Air Temp Fahrenheit
2024-05-26 05:04 SW 10 20 100 3.71 28
2024-05-26 04:04 SW 12 17 96 3.71 29
2024-05-26 03:04 SSW 11 17 97 3.71 29
2024-05-26 02:04 SW 12 17 98 3.71 30
2024-05-26 01:04 SSW 13 20 100 3.71 30
2024-05-26 00:04 SSW 10 17 100 3.71 31
2024-05-25 23:04 SSW 10 15 98 3.71 32
2024-05-25 22:04 SSW 7 11 86 3.71 33
2024-05-25 21:04 SSW 8 12 83 3.71 33
2024-05-25 20:04 SW 10 26 78 3.71 35
2024-05-25 19:04 SW 15 23 82 3.71 33
2024-05-25 18:04 SSW 9 17 71 3.71 39
2024-05-25 17:04 SSW 10 16 81 3.71 36
2024-05-25 16:04 SSW 11 17 86 3.71 35
2024-05-25 15:04 S 9 20 83 3.71 37
2024-05-25 14:04 SSW 10 20 65 3.7 38
2024-05-25 13:04 SSW 11 18 76 3.7 38
2024-05-25 12:04 S 10 18 68 3.69 36
2024-05-25 11:04 SSW 11 20 49 3.69 40
2024-05-25 10:04 S 10 17 39 3.69 46
2024-05-25 09:04 ESE 3 5 52 3.69 43
2024-05-25 08:04 SSE 3 5 60 3.69 36
2024-05-25 07:04 SSE 3 5 80 3.69 30
2024-05-25 06:04 S 3 5 82 3.69 29
2024-05-25 05:04 S 3 5 84 3.69 28
2024-05-25 04:04 S 3 14 77 3.69 29
2024-05-25 03:04 S 11 21 78 3.69 31
2024-05-25 02:04 SSW 10 12 71 3.69 32
2024-05-25 01:04 S 6 23 62 3.69 33
2024-05-25 00:04 NE 2 7 81 3.69 32
2024-05-24 23:04 SSE 6 15 67 3.69 34
2024-05-24 22:04 S 5 9 65 3.69 35
2024-05-24 21:04 S 3 12 65 3.69 35
2024-05-24 20:04 S 6 24 66 3.69 35
2024-05-24 19:04 S 7 16 60 3.69 37
2024-05-24 18:04 S 8 25 60 3.69 37
2024-05-24 17:04 S 11 23 65 3.69 37
2024-05-24 16:04 S 10 22 61 3.69 36
2024-05-24 15:04 S 13 24 73 3.69 34
2024-05-24 14:04 SSE 10 17 79 3.69 36
2024-05-24 13:04 S 8 16 84 3.67 35
2024-05-24 12:04 S 10 20 85 3.63 35
2024-05-24 11:04 S 13 19 85 3.6 35
2024-05-24 10:04 S 10 16 93 3.59 30
2024-05-24 09:04 S 8 10 95 3.59 28
2024-05-24 08:04 S 8 16 95 3.58 28
2024-05-24 07:04 S 7 13 95 3.58 23
2024-05-24 06:04 SSW 10 16 99 3.58 24
2024-05-24 05:04 SSW 10 18 99 3.58 24